sensor_id;sensor_type;location;lat;lon;timestamp;P1;durP1;ratioP1;P2;durP2;ratioP2
65855;SDS011;52631;42.208;24.656;2024-02-26T00:01:07;20.73;;;11.60;;
65855;SDS011;52631;42.208;24.656;2024-02-26T00:03:32;25.50;;;13.15;;
65855;SDS011;52631;42.208;24.656;2024-02-26T00:06:00;26.33;;;12.85;;
65855;SDS011;52631;42.208;24.656;2024-02-26T00:08:27;20.38;;;11.20;;
65855;SDS011;52631;42.208;24.656;2024-02-26T00:10:53;22.35;;;11.32;;
65855;SDS011;52631;42.208;24.656;2024-02-26T00:13:18;22.15;;;12.57;;
65855;SDS011;52631;42.208;24.656;2024-02-26T00:15:45;22.20;;;12.43;;
65855;SDS011;52631;42.208;24.656;2024-02-26T00:18:10;24.27;;;11.23;;
65855;SDS011;52631;42.208;24.656;2024-02-26T00:20:36;21.90;;;11.82;;
65855;SDS011;52631;42.208;24.656;2024-02-26T00:23:01;23.23;;;12.13;;
65855;SDS011;52631;42.208;24.656;2024-02-26T00:25:27;26.08;;;12.60;;
65855;SDS011;52631;42.208;24.656;2024-02-26T00:27:52;19.30;;;11.13;;
65855;SDS011;52631;42.208;24.656;2024-02-26T00:30:18;22.48;;;10.48;;
65855;SDS011;52631;42.208;24.656;2024-02-26T00:32:43;18.75;;;8.98;;
65855;SDS011;52631;42.208;24.656;2024-02-26T00:35:09;16.63;;;8.43;;
65855;SDS011;52631;42.208;24.656;2024-02-26T00:37:34;16.67;;;9.18;;
65855;SDS011;52631;42.208;24.656;2024-02-26T00:40:00;13.30;;;6.03;;
65855;SDS011;52631;42.208;24.656;2024-02-26T00:42:25;16.70;;;7.80;;
65855;SDS011;52631;42.208;24.656;2024-02-26T00:44:51;13.73;;;7.80;;
65855;SDS011;52631;42.208;24.656;2024-02-26T00:47:16;11.88;;;7.28;;
65855;SDS011;52631;42.208;24.656;2024-02-26T00:49:42;31.27;;;15.85;;
65855;SDS011;52631;42.208;24.656;2024-02-26T00:52:07;33.60;;;17.13;;
65855;SDS011;52631;42.208;24.656;2024-02-26T00:54:33;30.05;;;15.73;;
65855;SDS011;52631;42.208;24.656;2024-02-26T00:56:58;20.98;;;10.50;;
65855;SDS011;52631;42.208;24.656;2024-02-26T00:59:24;21.75;;;12.27;;
65855;SDS011;52631;42.208;24.656;2024-02-26T01:01:49;21.45;;;11.48;;
65855;SDS011;52631;42.208;24.656;2024-02-26T01:04:15;21.67;;;11.38;;
65855;SDS011;52631;42.208;24.656;2024-02-26T01:06:40;22.30;;;11.95;;
65855;SDS011;52631;42.208;24.656;2024-02-26T01:09:05;17.08;;;9.30;;
65855;SDS011;52631;42.208;24.656;2024-02-26T01:11:31;10.25;;;7.22;;
65855;SDS011;52631;42.208;24.656;2024-02-26T01:13:56;14.30;;;8.02;;
65855;SDS011;52631;42.208;24.656;2024-02-26T01:16:22;13.45;;;7.80;;
65855;SDS011;52631;42.208;24.656;2024-02-26T01:18:48;14.18;;;8.30;;
65855;SDS011;52631;42.208;24.656;2024-02-26T01:21:14;14.77;;;8.27;;
65855;SDS011;52631;42.208;24.656;2024-02-26T01:23:39;17.02;;;8.75;;
65855;SDS011;52631;42.208;24.656;2024-02-26T01:26:05;19.52;;;9.45;;
65855;SDS011;52631;42.208;24.656;2024-02-26T01:28:30;16.48;;;9.90;;
65855;SDS011;52631;42.208;24.656;2024-02-26T01:30:55;14.90;;;9.13;;
65855;SDS011;52631;42.208;24.656;2024-02-26T01:33:21;15.85;;;8.80;;
65855;SDS011;52631;42.208;24.656;2024-02-26T01:35:47;17.63;;;9.18;;
65855;SDS011;52631;42.208;24.656;2024-02-26T01:38:12;17.55;;;9.30;;
65855;SDS011;52631;42.208;24.656;2024-02-26T01:40:38;18.63;;;10.32;;
65855;SDS011;52631;42.208;24.656;2024-02-26T01:43:03;20.92;;;10.02;;
65855;SDS011;52631;42.208;24.656;2024-02-26T01:45:29;23.25;;;12.32;;
65855;SDS011;52631;42.208;24.656;2024-02-26T01:47:54;29.08;;;13.75;;
65855;SDS011;52631;42.208;24.656;2024-02-26T01:50:21;24.80;;;13.60;;
65855;SDS011;52631;42.208;24.656;2024-02-26T01:52:47;25.30;;;14.30;;
65855;SDS011;52631;42.208;24.656;2024-02-26T01:55:14;25.15;;;13.07;;
65855;SDS011;52631;42.208;24.656;2024-02-26T01:57:40;27.13;;;12.60;;
65855;SDS011;52631;42.208;24.656;2024-02-26T02:00:09;19.58;;;10.80;;
65855;SDS011;52631;42.208;24.656;2024-02-26T02:02:35;22.10;;;11.63;;
65855;SDS011;52631;42.208;24.656;2024-02-26T02:05:01;24.60;;;12.68;;
65855;SDS011;52631;42.208;24.656;2024-02-26T02:07:27;23.05;;;11.63;;
65855;SDS011;52631;42.208;24.656;2024-02-26T02:09:52;22.65;;;12.05;;
65855;SDS011;52631;42.208;24.656;2024-02-26T02:12:18;24.92;;;12.63;;
65855;SDS011;52631;42.208;24.656;2024-02-26T02:14:44;22.20;;;11.70;;
65855;SDS011;52631;42.208;24.656;2024-02-26T02:17:09;20.23;;;11.60;;
65855;SDS011;52631;42.208;24.656;2024-02-26T02:19:35;19.45;;;11.30;;
65855;SDS011;52631;42.208;24.656;2024-02-26T02:22:00;22.42;;;11.75;;
65855;SDS011;52631;42.208;24.656;2024-02-26T02:24:26;21.42;;;12.20;;
65855;SDS011;52631;42.208;24.656;2024-02-26T02:26:51;21.63;;;13.07;;
65855;SDS011;52631;42.208;24.656;2024-02-26T02:29:17;38.47;;;17.70;;
65855;SDS011;52631;42.208;24.656;2024-02-26T02:31:42;42.70;;;18.75;;
65855;SDS011;52631;42.208;24.656;2024-02-26T02:34:08;18.48;;;12.25;;
65855;SDS011;52631;42.208;24.656;2024-02-26T02:36:34;20.58;;;10.93;;
65855;SDS011;52631;42.208;24.656;2024-02-26T02:39:00;27.25;;;14.13;;
65855;SDS011;52631;42.208;24.656;2024-02-26T02:41:25;23.20;;;11.68;;
65855;SDS011;52631;42.208;24.656;2024-02-26T02:43:52;20.77;;;11.70;;
65855;SDS011;52631;42.208;24.656;2024-02-26T02:46:17;21.17;;;12.00;;
65855;SDS011;52631;42.208;24.656;2024-02-26T02:48:44;21.15;;;11.55;;
65855;SDS011;52631;42.208;24.656;2024-02-26T02:51:09;19.23;;;10.80;;
65855;SDS011;52631;42.208;24.656;2024-02-26T02:53:35;17.02;;;10.05;;
65855;SDS011;52631;42.208;24.656;2024-02-26T02:56:01;20.33;;;11.35;;
65855;SDS011;52631;42.208;24.656;2024-02-26T02:58:26;18.65;;;10.82;;
65855;SDS011;52631;42.208;24.656;2024-02-26T03:00:52;20.55;;;9.20;;
65855;SDS011;52631;42.208;24.656;2024-02-26T03:03:17;20.17;;;10.25;;
65855;SDS011;52631;42.208;24.656;2024-02-26T03:05:42;23.35;;;11.23;;
65855;SDS011;52631;42.208;24.656;2024-02-26T03:08:08;17.65;;;10.32;;
65855;SDS011;52631;42.208;24.656;2024-02-26T03:10:34;18.67;;;11.35;;
65855;SDS011;52631;42.208;24.656;2024-02-26T03:12:59;23.50;;;12.30;;
65855;SDS011;52631;42.208;24.656;2024-02-26T03:15:25;23.27;;;12.05;;
65855;SDS011;52631;42.208;24.656;2024-02-26T03:17:50;23.20;;;11.73;;
65855;SDS011;52631;42.208;24.656;2024-02-26T03:20:16;26.38;;;13.80;;
65855;SDS011;52631;42.208;24.656;2024-02-26T03:22:44;22.25;;;11.35;;
65855;SDS011;52631;42.208;24.656;2024-02-26T03:25:09;23.33;;;12.70;;
65855;SDS011;52631;42.208;24.656;2024-02-26T03:27:35;19.25;;;12.48;;
65855;SDS011;52631;42.208;24.656;2024-02-26T03:30:00;23.25;;;12.07;;
65855;SDS011;52631;42.208;24.656;2024-02-26T03:32:26;20.58;;;12.43;;
65855;SDS011;52631;42.208;24.656;2024-02-26T03:34:51;23.92;;;12.07;;
65855;SDS011;52631;42.208;24.656;2024-02-26T03:37:19;23.08;;;12.38;;
65855;SDS011;52631;42.208;24.656;2024-02-26T03:39:45;21.52;;;12.07;;
65855;SDS011;52631;42.208;24.656;2024-02-26T03:42:10;22.85;;;12.75;;
65855;SDS011;52631;42.208;24.656;2024-02-26T03:44:36;22.98;;;12.13;;
65855;SDS011;52631;42.208;24.656;2024-02-26T03:47:01;25.27;;;13.02;;
65855;SDS011;52631;42.208;24.656;2024-02-26T03:49:27;33.22;;;17.00;;
65855;SDS011;52631;42.208;24.656;2024-02-26T03:51:52;26.27;;;13.30;;
65855;SDS011;52631;42.208;24.656;2024-02-26T03:54:18;31.27;;;16.00;;
65855;SDS011;52631;42.208;24.656;2024-02-26T03:56:43;19.50;;;12.15;;
65855;SDS011;52631;42.208;24.656;2024-02-26T03:59:09;22.15;;;11.70;;
65855;SDS011;52631;42.208;24.656;2024-02-26T04:01:34;27.58;;;13.57;;
65855;SDS011;52631;42.208;24.656;2024-02-26T04:03:59;24.90;;;13.50;;
65855;SDS011;52631;42.208;24.656;2024-02-26T04:06:25;27.83;;;13.68;;
65855;SDS011;52631;42.208;24.656;2024-02-26T04:08:50;24.38;;;14.38;;
65855;SDS011;52631;42.208;24.656;2024-02-26T04:11:16;28.90;;;16.17;;
65855;SDS011;52631;42.208;24.656;2024-02-26T04:13:46;29.48;;;16.30;;
65855;SDS011;52631;42.208;24.656;2024-02-26T04:16:14;28.65;;;15.98;;
65855;SDS011;52631;42.208;24.656;2024-02-26T04:18:41;28.48;;;14.80;;
65855;SDS011;52631;42.208;24.656;2024-02-26T04:21:06;27.40;;;14.57;;
65855;SDS011;52631;42.208;24.656;2024-02-26T04:23:32;25.33;;;14.00;;
65855;SDS011;52631;42.208;24.656;2024-02-26T04:25:58;23.80;;;12.85;;
65855;SDS011;52631;42.208;24.656;2024-02-26T04:28:23;24.35;;;13.30;;
65855;SDS011;52631;42.208;24.656;2024-02-26T04:30:51;27.25;;;13.32;;
65855;SDS011;52631;42.208;24.656;2024-02-26T04:33:16;25.98;;;13.45;;
65855;SDS011;52631;42.208;24.656;2024-02-26T04:35:42;25.70;;;13.82;;
65855;SDS011;52631;42.208;24.656;2024-02-26T04:38:07;28.83;;;14.55;;
65855;SDS011;52631;42.208;24.656;2024-02-26T04:40:33;24.00;;;13.45;;
65855;SDS011;52631;42.208;24.656;2024-02-26T04:42:58;27.98;;;13.50;;
65855;SDS011;52631;42.208;24.656;2024-02-26T04:45:24;27.90;;;14.30;;
65855;SDS011;52631;42.208;24.656;2024-02-26T04:47:49;32.15;;;16.92;;
65855;SDS011;52631;42.208;24.656;2024-02-26T04:50:15;29.77;;;15.50;;
65855;SDS011;52631;42.208;24.656;2024-02-26T04:52:40;27.73;;;15.57;;
65855;SDS011;52631;42.208;24.656;2024-02-26T04:55:06;31.15;;;16.45;;
65855;SDS011;52631;42.208;24.656;2024-02-26T04:57:32;33.03;;;15.65;;
65855;SDS011;52631;42.208;24.656;2024-02-26T04:59:57;30.20;;;15.18;;
65855;SDS011;52631;42.208;24.656;2024-02-26T05:02:23;29.20;;;15.52;;
65855;SDS011;52631;42.208;24.656;2024-02-26T05:04:49;27.10;;;15.13;;
65855;SDS011;52631;42.208;24.656;2024-02-26T05:07:14;32.08;;;17.70;;
65855;SDS011;52631;42.208;24.656;2024-02-26T05:09:42;29.50;;;17.13;;
65855;SDS011;52631;42.208;24.656;2024-02-26T05:12:08;31.98;;;16.88;;
65855;SDS011;52631;42.208;24.656;2024-02-26T05:14:34;34.95;;;17.45;;
65855;SDS011;52631;42.208;24.656;2024-02-26T05:17:00;28.38;;;16.50;;
65855;SDS011;52631;42.208;24.656;2024-02-26T05:19:25;35.08;;;18.02;;
65855;SDS011;52631;42.208;24.656;2024-02-26T05:21:50;30.95;;;17.05;;
65855;SDS011;52631;42.208;24.656;2024-02-26T05:24:16;33.85;;;17.35;;
65855;SDS011;52631;42.208;24.656;2024-02-26T05:26:42;34.55;;;17.60;;
65855;SDS011;52631;42.208;24.656;2024-02-26T05:29:08;30.08;;;16.55;;
65855;SDS011;52631;42.208;24.656;2024-02-26T05:31:34;33.63;;;17.42;;
65855;SDS011;52631;42.208;24.656;2024-02-26T05:33:59;36.50;;;18.08;;
65855;SDS011;52631;42.208;24.656;2024-02-26T05:36:25;30.95;;;17.95;;
65855;SDS011;52631;42.208;24.656;2024-02-26T05:38:51;34.15;;;18.02;;
65855;SDS011;52631;42.208;24.656;2024-02-26T05:41:16;33.65;;;16.95;;
65855;SDS011;52631;42.208;24.656;2024-02-26T05:43:47;76.75;;;40.33;;
65855;SDS011;52631;42.208;24.656;2024-02-26T05:46:13;35.60;;;18.67;;
65855;SDS011;52631;42.208;24.656;2024-02-26T05:48:41;32.92;;;18.17;;
65855;SDS011;52631;42.208;24.656;2024-02-26T05:51:07;27.48;;;15.15;;
65855;SDS011;52631;42.208;24.656;2024-02-26T05:53:33;27.90;;;16.08;;
65855;SDS011;52631;42.208;24.656;2024-02-26T05:55:59;30.00;;;15.82;;
65855;SDS011;52631;42.208;24.656;2024-02-26T05:58:24;26.52;;;14.43;;
65855;SDS011;52631;42.208;24.656;2024-02-26T06:00:49;26.08;;;14.05;;
65855;SDS011;52631;42.208;24.656;2024-02-26T06:03:15;23.08;;;14.07;;
65855;SDS011;52631;42.208;24.656;2024-02-26T06:05:40;24.58;;;13.70;;
65855;SDS011;52631;42.208;24.656;2024-02-26T06:08:06;25.92;;;13.88;;
65855;SDS011;52631;42.208;24.656;2024-02-26T06:10:32;25.83;;;14.00;;
65855;SDS011;52631;42.208;24.656;2024-02-26T06:12:57;27.40;;;16.27;;
65855;SDS011;52631;42.208;24.656;2024-02-26T06:15:23;41.60;;;19.50;;
65855;SDS011;52631;42.208;24.656;2024-02-26T06:17:48;40.92;;;23.38;;
65855;SDS011;52631;42.208;24.656;2024-02-26T06:20:14;53.97;;;25.63;;
65855;SDS011;52631;42.208;24.656;2024-02-26T06:22:40;47.30;;;24.63;;
65855;SDS011;52631;42.208;24.656;2024-02-26T06:25:06;37.10;;;19.02;;
65855;SDS011;52631;42.208;24.656;2024-02-26T06:27:31;34.97;;;19.63;;
65855;SDS011;52631;42.208;24.656;2024-02-26T06:29:57;37.25;;;17.45;;
65855;SDS011;52631;42.208;24.656;2024-02-26T06:32:22;35.80;;;18.48;;
65855;SDS011;52631;42.208;24.656;2024-02-26T06:34:48;44.08;;;21.38;;
65855;SDS011;52631;42.208;24.656;2024-02-26T06:37:13;39.63;;;19.58;;
65855;SDS011;52631;42.208;24.656;2024-02-26T06:39:39;44.55;;;21.65;;
65855;SDS011;52631;42.208;24.656;2024-02-26T06:42:06;64.13;;;29.10;;
65855;SDS011;52631;42.208;24.656;2024-02-26T06:44:31;47.92;;;22.40;;
65855;SDS011;52631;42.208;24.656;2024-02-26T06:47:00;41.70;;;19.48;;
65855;SDS011;52631;42.208;24.656;2024-02-26T06:49:26;38.25;;;19.38;;
65855;SDS011;52631;42.208;24.656;2024-02-26T06:51:52;36.35;;;19.95;;
65855;SDS011;52631;42.208;24.656;2024-02-26T06:54:18;30.33;;;17.20;;
65855;SDS011;52631;42.208;24.656;2024-02-26T06:56:43;34.20;;;19.23;;
65855;SDS011;52631;42.208;24.656;2024-02-26T06:59:09;31.33;;;16.35;;
65855;SDS011;52631;42.208;24.656;2024-02-26T07:01:34;29.25;;;18.25;;
65855;SDS011;52631;42.208;24.656;2024-02-26T07:04:00;29.33;;;16.25;;
65855;SDS011;52631;42.208;24.656;2024-02-26T07:06:25;29.77;;;16.02;;
65855;SDS011;52631;42.208;24.656;2024-02-26T07:08:52;31.27;;;16.23;;
65855;SDS011;52631;42.208;24.656;2024-02-26T07:11:17;26.38;;;16.52;;
65855;SDS011;52631;42.208;24.656;2024-02-26T07:13:44;30.00;;;15.15;;
65855;SDS011;52631;42.208;24.656;2024-02-26T07:16:14;23.65;;;14.90;;
65855;SDS011;52631;42.208;24.656;2024-02-26T07:18:40;25.77;;;14.73;;
65855;SDS011;52631;42.208;24.656;2024-02-26T07:21:05;30.67;;;14.55;;
65855;SDS011;52631;42.208;24.656;2024-02-26T07:23:31;27.42;;;15.80;;
65855;SDS011;52631;42.208;24.656;2024-02-26T07:25:57;28.92;;;15.85;;
65855;SDS011;52631;42.208;24.656;2024-02-26T07:28:22;26.75;;;14.55;;
65855;SDS011;52631;42.208;24.656;2024-02-26T07:30:49;24.58;;;12.95;;
65855;SDS011;52631;42.208;24.656;2024-02-26T07:33:14;24.95;;;13.07;;
65855;SDS011;52631;42.208;24.656;2024-02-26T07:35:39;23.08;;;13.10;;
65855;SDS011;52631;42.208;24.656;2024-02-26T07:38:05;25.98;;;12.95;;
65855;SDS011;52631;42.208;24.656;2024-02-26T07:40:30;22.67;;;12.25;;
65855;SDS011;52631;42.208;24.656;2024-02-26T07:42:56;22.73;;;12.77;;
65855;SDS011;52631;42.208;24.656;2024-02-26T07:45:22;22.63;;;11.57;;
65855;SDS011;52631;42.208;24.656;2024-02-26T07:47:47;18.48;;;10.93;;
65855;SDS011;52631;42.208;24.656;2024-02-26T07:50:12;20.17;;;11.65;;
65855;SDS011;52631;42.208;24.656;2024-02-26T07:52:38;22.63;;;11.68;;
65855;SDS011;52631;42.208;24.656;2024-02-26T07:55:04;19.58;;;10.90;;
65855;SDS011;52631;42.208;24.656;2024-02-26T07:57:31;21.30;;;11.57;;
65855;SDS011;52631;42.208;24.656;2024-02-26T07:59:57;21.92;;;11.05;;
65855;SDS011;52631;42.208;24.656;2024-02-26T08:02:22;23.58;;;12.65;;
65855;SDS011;52631;42.208;24.656;2024-02-26T08:04:48;21.00;;;11.63;;
65855;SDS011;52631;42.208;24.656;2024-02-26T08:07:13;20.55;;;10.93;;
65855;SDS011;52631;42.208;24.656;2024-02-26T08:09:39;19.70;;;11.60;;
65855;SDS011;52631;42.208;24.656;2024-02-26T08:12:04;18.27;;;10.48;;
65855;SDS011;52631;42.208;24.656;2024-02-26T08:14:30;21.48;;;10.93;;
65855;SDS011;52631;42.208;24.656;2024-02-26T08:16:57;21.23;;;11.45;;
65855;SDS011;52631;42.208;24.656;2024-02-26T08:19:23;19.67;;;10.40;;
65855;SDS011;52631;42.208;24.656;2024-02-26T08:21:49;24.20;;;11.98;;
65855;SDS011;52631;42.208;24.656;2024-02-26T08:24:15;19.50;;;11.98;;
65855;SDS011;52631;42.208;24.656;2024-02-26T08:26:40;28.08;;;15.50;;
65855;SDS011;52631;42.208;24.656;2024-02-26T08:29:06;19.40;;;11.50;;
65855;SDS011;52631;42.208;24.656;2024-02-26T08:31:31;19.98;;;10.85;;
65855;SDS011;52631;42.208;24.656;2024-02-26T08:33:57;18.80;;;9.50;;
65855;SDS011;52631;42.208;24.656;2024-02-26T08:36:23;17.90;;;10.55;;
65855;SDS011;52631;42.208;24.656;2024-02-26T08:38:49;17.75;;;10.60;;
65855;SDS011;52631;42.208;24.656;2024-02-26T08:41:14;17.60;;;10.73;;
65855;SDS011;52631;42.208;24.656;2024-02-26T08:43:39;19.17;;;9.85;;
65855;SDS011;52631;42.208;24.656;2024-02-26T08:46:08;18.00;;;10.02;;
65855;SDS011;52631;42.208;24.656;2024-02-26T08:48:34;17.88;;;9.90;;
65855;SDS011;52631;42.208;24.656;2024-02-26T08:50:59;17.17;;;10.00;;
65855;SDS011;52631;42.208;24.656;2024-02-26T08:53:24;19.42;;;12.20;;
65855;SDS011;52631;42.208;24.656;2024-02-26T08:55:51;19.05;;;10.60;;
65855;SDS011;52631;42.208;24.656;2024-02-26T08:58:17;19.05;;;11.27;;
65855;SDS011;52631;42.208;24.656;2024-02-26T09:00:42;18.80;;;10.32;;
65855;SDS011;52631;42.208;24.656;2024-02-26T09:03:08;19.10;;;11.18;;
65855;SDS011;52631;42.208;24.656;2024-02-26T09:05:33;20.63;;;10.55;;
65855;SDS011;52631;42.208;24.656;2024-02-26T09:07:59;19.50;;;11.25;;
65855;SDS011;52631;42.208;24.656;2024-02-26T09:10:24;20.77;;;11.43;;
65855;SDS011;52631;42.208;24.656;2024-02-26T09:12:50;20.83;;;11.10;;
65855;SDS011;52631;42.208;24.656;2024-02-26T09:15:15;18.20;;;10.98;;
65855;SDS011;52631;42.208;24.656;2024-02-26T09:17:41;19.13;;;11.68;;
65855;SDS011;52631;42.208;24.656;2024-02-26T09:20:06;19.92;;;11.02;;
65855;SDS011;52631;42.208;24.656;2024-02-26T09:22:34;20.20;;;11.48;;
65855;SDS011;52631;42.208;24.656;2024-02-26T09:24:59;20.20;;;12.48;;
65855;SDS011;52631;42.208;24.656;2024-02-26T09:27:25;22.23;;;11.80;;
65855;SDS011;52631;42.208;24.656;2024-02-26T09:29:50;20.27;;;10.90;;
65855;SDS011;52631;42.208;24.656;2024-02-26T09:32:16;21.75;;;12.10;;
65855;SDS011;52631;42.208;24.656;2024-02-26T09:34:42;22.23;;;11.40;;
65855;SDS011;52631;42.208;24.656;2024-02-26T09:37:07;29.83;;;12.63;;
65855;SDS011;52631;42.208;24.656;2024-02-26T09:39:33;20.13;;;11.52;;
65855;SDS011;52631;42.208;24.656;2024-02-26T09:41:58;22.88;;;11.70;;
65855;SDS011;52631;42.208;24.656;2024-02-26T09:44:28;19.50;;;11.32;;
65855;SDS011;52631;42.208;24.656;2024-02-26T09:46:55;20.33;;;11.93;;
65855;SDS011;52631;42.208;24.656;2024-02-26T09:49:21;19.75;;;11.55;;
65855;SDS011;52631;42.208;24.656;2024-02-26T09:51:49;21.63;;;11.65;;
65855;SDS011;52631;42.208;24.656;2024-02-26T09:54:14;21.80;;;12.35;;
65855;SDS011;52631;42.208;24.656;2024-02-26T09:56:41;22.67;;;11.55;;
65855;SDS011;52631;42.208;24.656;2024-02-26T09:59:08;21.23;;;12.52;;
65855;SDS011;52631;42.208;24.656;2024-02-26T10:01:35;22.30;;;11.25;;
65855;SDS011;52631;42.208;24.656;2024-02-26T10:04:02;22.75;;;14.07;;
65855;SDS011;52631;42.208;24.656;2024-02-26T10:06:28;23.55;;;12.25;;
65855;SDS011;52631;42.208;24.656;2024-02-26T10:08:56;20.75;;;11.60;;
65855;SDS011;52631;42.208;24.656;2024-02-26T10:13:50;18.48;;;11.27;;
65855;SDS011;52631;42.208;24.656;2024-02-26T10:16:16;18.05;;;10.65;;
65855;SDS011;52631;42.208;24.656;2024-02-26T10:21:13;18.65;;;10.73;;
65855;SDS011;52631;42.208;24.656;2024-02-26T10:23:42;21.48;;;11.48;;
65855;SDS011;52631;42.208;24.656;2024-02-26T10:26:09;19.48;;;10.95;;
65855;SDS011;52631;42.208;24.656;2024-02-26T10:28:35;16.25;;;10.18;;
65855;SDS011;52631;42.208;24.656;2024-02-26T10:31:01;14.35;;;9.50;;
65855;SDS011;52631;42.208;24.656;2024-02-26T10:33:27;18.73;;;10.30;;
65855;SDS011;52631;42.208;24.656;2024-02-26T10:35:53;16.38;;;10.07;;
65855;SDS011;52631;42.208;24.656;2024-02-26T10:38:19;36.50;;;21.83;;
65855;SDS011;52631;42.208;24.656;2024-02-26T10:40:46;15.52;;;9.88;;
65855;SDS011;52631;42.208;24.656;2024-02-26T10:43:11;15.90;;;10.20;;
65855;SDS011;52631;42.208;24.656;2024-02-26T10:45:39;16.13;;;9.82;;
65855;SDS011;52631;42.208;24.656;2024-02-26T10:48:11;20.00;;;10.73;;
65855;SDS011;52631;42.208;24.656;2024-02-26T10:50:38;19.30;;;11.63;;
65855;SDS011;52631;42.208;24.656;2024-02-26T10:53:03;18.65;;;11.60;;
65855;SDS011;52631;42.208;24.656;2024-02-26T10:55:31;19.95;;;11.77;;
65855;SDS011;52631;42.208;24.656;2024-02-26T10:58:00;20.95;;;11.52;;
65855;SDS011;52631;42.208;24.656;2024-02-26T11:00:26;22.00;;;12.55;;
65855;SDS011;52631;42.208;24.656;2024-02-26T11:02:53;27.02;;;12.10;;
65855;SDS011;52631;42.208;24.656;2024-02-26T11:05:18;21.38;;;11.85;;
65855;SDS011;52631;42.208;24.656;2024-02-26T11:07:44;21.27;;;11.90;;
65855;SDS011;52631;42.208;24.656;2024-02-26T11:10:12;23.02;;;11.95;;
65855;SDS011;52631;42.208;24.656;2024-02-26T11:12:37;27.83;;;11.40;;
65855;SDS011;52631;42.208;24.656;2024-02-26T11:15:04;22.67;;;11.98;;
65855;SDS011;52631;42.208;24.656;2024-02-26T11:17:30;22.10;;;11.82;;
65855;SDS011;52631;42.208;24.656;2024-02-26T11:19:57;19.95;;;10.23;;
65855;SDS011;52631;42.208;24.656;2024-02-26T11:22:24;19.58;;;12.57;;
65855;SDS011;52631;42.208;24.656;2024-02-26T11:24:53;19.00;;;11.13;;
65855;SDS011;52631;42.208;24.656;2024-02-26T11:27:21;17.88;;;11.73;;
65855;SDS011;52631;42.208;24.656;2024-02-26T11:29:51;17.08;;;10.02;;
65855;SDS011;52631;42.208;24.656;2024-02-26T11:32:17;17.02;;;10.18;;
65855;SDS011;52631;42.208;24.656;2024-02-26T11:34:43;17.13;;;10.32;;
65855;SDS011;52631;42.208;24.656;2024-02-26T11:37:10;19.77;;;11.25;;
65855;SDS011;52631;42.208;24.656;2024-02-26T11:39:39;31.70;;;16.63;;
65855;SDS011;52631;42.208;24.656;2024-02-26T11:42:09;60.83;;;25.25;;
65855;SDS011;52631;42.208;24.656;2024-02-26T11:44:36;21.57;;;12.13;;
65855;SDS011;52631;42.208;24.656;2024-02-26T11:47:11;25.55;;;11.85;;
65855;SDS011;52631;42.208;24.656;2024-02-26T11:49:37;22.65;;;11.35;;
65855;SDS011;52631;42.208;24.656;2024-02-26T11:52:05;15.40;;;10.40;;
65855;SDS011;52631;42.208;24.656;2024-02-26T11:54:45;17.50;;;10.02;;
65855;SDS011;52631;42.208;24.656;2024-02-26T12:05:23;17.70;;;9.35;;
65855;SDS011;52631;42.208;24.656;2024-02-26T12:07:53;17.88;;;10.10;;
65855;SDS011;52631;42.208;24.656;2024-02-26T12:13:03;15.50;;;9.70;;
65855;SDS011;52631;42.208;24.656;2024-02-26T12:15:33;16.13;;;9.35;;
65855;SDS011;52631;42.208;24.656;2024-02-26T12:18:02;18.05;;;10.00;;
65855;SDS011;52631;42.208;24.656;2024-02-26T12:20:29;15.82;;;9.07;;
65855;SDS011;52631;42.208;24.656;2024-02-26T12:22:54;16.42;;;9.65;;
65855;SDS011;52631;42.208;24.656;2024-02-26T12:25:28;19.50;;;10.05;;
65855;SDS011;52631;42.208;24.656;2024-02-26T12:27:54;37.58;;;20.50;;
65855;SDS011;52631;42.208;24.656;2024-02-26T12:30:20;26.98;;;16.23;;
65855;SDS011;52631;42.208;24.656;2024-02-26T12:32:46;23.60;;;11.30;;
65855;SDS011;52631;42.208;24.656;2024-02-26T12:35:13;66.97;;;26.58;;
65855;SDS011;52631;42.208;24.656;2024-02-26T12:37:39;39.15;;;17.42;;
65855;SDS011;52631;42.208;24.656;2024-02-26T12:40:05;15.15;;;9.65;;
65855;SDS011;52631;42.208;24.656;2024-02-26T12:42:33;16.83;;;10.00;;
65855;SDS011;52631;42.208;24.656;2024-02-26T12:45:04;22.08;;;11.43;;
65855;SDS011;52631;42.208;24.656;2024-02-26T12:47:44;23.15;;;11.68;;
65855;SDS011;52631;42.208;24.656;2024-02-26T12:50:18;32.47;;;15.13;;
65855;SDS011;52631;42.208;24.656;2024-02-26T12:52:45;19.58;;;10.32;;
65855;SDS011;52631;42.208;24.656;2024-02-26T12:55:15;20.05;;;9.75;;
65855;SDS011;52631;42.208;24.656;2024-02-26T12:57:43;26.85;;;13.27;;
65855;SDS011;52631;42.208;24.656;2024-02-26T13:00:11;20.13;;;11.20;;
65855;SDS011;52631;42.208;24.656;2024-02-26T13:02:39;17.93;;;10.23;;
65855;SDS011;52631;42.208;24.656;2024-02-26T13:05:05;21.60;;;11.55;;
65855;SDS011;52631;42.208;24.656;2024-02-26T13:07:33;18.33;;;11.65;;
65855;SDS011;52631;42.208;24.656;2024-02-26T13:09:59;18.10;;;11.02;;
65855;SDS011;52631;42.208;24.656;2024-02-26T13:12:24;20.48;;;12.07;;
65855;SDS011;52631;42.208;24.656;2024-02-26T13:15:00;19.80;;;11.15;;
65855;SDS011;52631;42.208;24.656;2024-02-26T13:17:26;21.55;;;10.75;;
65855;SDS011;52631;42.208;24.656;2024-02-26T13:19:53;22.02;;;11.25;;
65855;SDS011;52631;42.208;24.656;2024-02-26T13:22:22;23.17;;;11.07;;
65855;SDS011;52631;42.208;24.656;2024-02-26T13:24:58;16.77;;;10.23;;
65855;SDS011;52631;42.208;24.656;2024-02-26T13:27:24;18.20;;;10.35;;
65855;SDS011;52631;42.208;24.656;2024-02-26T13:32:47;18.55;;;10.65;;
65855;SDS011;52631;42.208;24.656;2024-02-26T13:35:12;21.90;;;11.52;;
65855;SDS011;52631;42.208;24.656;2024-02-26T13:37:39;20.40;;;11.63;;
65855;SDS011;52631;42.208;24.656;2024-02-26T13:40:05;19.05;;;11.60;;
65855;SDS011;52631;42.208;24.656;2024-02-26T13:42:32;23.10;;;11.77;;
65855;SDS011;52631;42.208;24.656;2024-02-26T13:44:58;16.95;;;10.55;;
65855;SDS011;52631;42.208;24.656;2024-02-26T13:47:23;19.15;;;10.73;;
65855;SDS011;52631;42.208;24.656;2024-02-26T13:49:48;21.45;;;11.60;;
65855;SDS011;52631;42.208;24.656;2024-02-26T13:52:14;19.35;;;11.38;;
65855;SDS011;52631;42.208;24.656;2024-02-26T13:54:40;20.08;;;11.55;;
65855;SDS011;52631;42.208;24.656;2024-02-26T13:57:05;21.30;;;12.07;;
65855;SDS011;52631;42.208;24.656;2024-02-26T13:59:31;19.20;;;10.95;;
65855;SDS011;52631;42.208;24.656;2024-02-26T14:01:56;21.88;;;13.35;;
65855;SDS011;52631;42.208;24.656;2024-02-26T14:04:22;21.05;;;11.05;;
65855;SDS011;52631;42.208;24.656;2024-02-26T14:06:47;26.27;;;13.73;;
65855;SDS011;52631;42.208;24.656;2024-02-26T14:09:13;30.45;;;13.73;;
65855;SDS011;52631;42.208;24.656;2024-02-26T14:11:43;53.10;;;24.65;;
65855;SDS011;52631;42.208;24.656;2024-02-26T14:14:12;31.48;;;15.30;;
65855;SDS011;52631;42.208;24.656;2024-02-26T14:16:38;22.75;;;12.40;;
65855;SDS011;52631;42.208;24.656;2024-02-26T14:19:03;19.10;;;11.82;;
65855;SDS011;52631;42.208;24.656;2024-02-26T14:21:29;18.13;;;11.05;;
65855;SDS011;52631;42.208;24.656;2024-02-26T14:23:57;19.52;;;11.48;;